sensor_id;sensor_type;location;lat;lon;timestamp;P1;durP1;ratioP1;P2;durP2;ratioP2
14052;SDS011;7101;51.600;7.310;2024-03-06T00:00:01;18.63;;;11.60;;
14052;SDS011;7101;51.600;7.310;2024-03-06T00:02:29;21.73;;;12.45;;
14052;SDS011;7101;51.600;7.310;2024-03-06T00:04:56;19.70;;;11.02;;
14052;SDS011;7101;51.600;7.310;2024-03-06T00:07:23;17.92;;;11.02;;
14052;SDS011;7101;51.600;7.310;2024-03-06T00:09:50;17.13;;;10.18;;
14052;SDS011;7101;51.600;7.310;2024-03-06T00:12:19;19.75;;;11.45;;
14052;SDS011;7101;51.600;7.310;2024-03-06T00:14:46;20.55;;;11.45;;
14052;SDS011;7101;51.600;7.310;2024-03-06T00:17:13;20.77;;;11.63;;
14052;SDS011;7101;51.600;7.310;2024-03-06T00:19:40;21.00;;;12.00;;
14052;SDS011;7101;51.600;7.310;2024-03-06T00:22:08;18.83;;;11.48;;
14052;SDS011;7101;51.600;7.310;2024-03-06T00:24:35;19.08;;;11.40;;
14052;SDS011;7101;51.600;7.310;2024-03-06T00:27:02;18.23;;;11.55;;
14052;SDS011;7101;51.600;7.310;2024-03-06T00:29:30;18.95;;;11.98;;
14052;SDS011;7101;51.600;7.310;2024-03-06T00:31:57;18.70;;;11.77;;
14052;SDS011;7101;51.600;7.310;2024-03-06T00:34:24;21.27;;;12.25;;
14052;SDS011;7101;51.600;7.310;2024-03-06T00:36:52;19.80;;;11.93;;
14052;SDS011;7101;51.600;7.310;2024-03-06T00:39:19;22.20;;;11.70;;
14052;SDS011;7101;51.600;7.310;2024-03-06T00:41:46;19.00;;;11.43;;
14052;SDS011;7101;51.600;7.310;2024-03-06T00:44:13;18.40;;;11.13;;
14052;SDS011;7101;51.600;7.310;2024-03-06T00:46:42;18.65;;;10.77;;
14052;SDS011;7101;51.600;7.310;2024-03-06T00:49:09;19.35;;;11.23;;
14052;SDS011;7101;51.600;7.310;2024-03-06T00:51:36;18.02;;;10.98;;
14052;SDS011;7101;51.600;7.310;2024-03-06T00:54:03;15.68;;;9.60;;
14052;SDS011;7101;51.600;7.310;2024-03-06T00:56:30;14.00;;;9.70;;
14052;SDS011;7101;51.600;7.310;2024-03-06T00:58:57;17.77;;;10.98;;
14052;SDS011;7101;51.600;7.310;2024-03-06T01:01:24;19.35;;;12.10;;
14052;SDS011;7101;51.600;7.310;2024-03-06T01:03:54;21.63;;;12.10;;
14052;SDS011;7101;51.600;7.310;2024-03-06T01:06:20;16.83;;;10.75;;
14052;SDS011;7101;51.600;7.310;2024-03-06T01:08:47;17.27;;;9.93;;
14052;SDS011;7101;51.600;7.310;2024-03-06T01:11:14;17.90;;;11.15;;
14052;SDS011;7101;51.600;7.310;2024-03-06T01:13:41;20.17;;;11.65;;
14052;SDS011;7101;51.600;7.310;2024-03-06T01:16:07;18.58;;;11.55;;
14052;SDS011;7101;51.600;7.310;2024-03-06T01:18:34;23.70;;;12.38;;
14052;SDS011;7101;51.600;7.310;2024-03-06T01:21:02;20.77;;;12.20;;
14052;SDS011;7101;51.600;7.310;2024-03-06T01:23:30;24.35;;;13.73;;
14052;SDS011;7101;51.600;7.310;2024-03-06T01:25:57;18.17;;;10.98;;
14052;SDS011;7101;51.600;7.310;2024-03-06T01:28:24;20.92;;;11.60;;
14052;SDS011;7101;51.600;7.310;2024-03-06T01:30:51;19.58;;;11.73;;
14052;SDS011;7101;51.600;7.310;2024-03-06T01:33:17;19.05;;;11.82;;
14052;SDS011;7101;51.600;7.310;2024-03-06T01:35:44;18.52;;;11.65;;
14052;SDS011;7101;51.600;7.310;2024-03-06T01:38:12;22.00;;;11.95;;
14052;SDS011;7101;51.600;7.310;2024-03-06T01:40:42;19.35;;;12.25;;
14052;SDS011;7101;51.600;7.310;2024-03-06T01:43:16;21.02;;;13.05;;
14052;SDS011;7101;51.600;7.310;2024-03-06T01:45:47;20.52;;;12.73;;
14052;SDS011;7101;51.600;7.310;2024-03-06T01:48:15;21.83;;;12.85;;
14052;SDS011;7101;51.600;7.310;2024-03-06T01:50:42;19.45;;;11.82;;
14052;SDS011;7101;51.600;7.310;2024-03-06T01:53:09;21.50;;;12.60;;
14052;SDS011;7101;51.600;7.310;2024-03-06T01:55:38;20.00;;;12.18;;
14052;SDS011;7101;51.600;7.310;2024-03-06T01:58:05;21.25;;;12.85;;
14052;SDS011;7101;51.600;7.310;2024-03-06T02:00:32;23.70;;;12.30;;
14052;SDS011;7101;51.600;7.310;2024-03-06T02:03:00;25.55;;;13.25;;
14052;SDS011;7101;51.600;7.310;2024-03-06T02:05:27;27.08;;;14.00;;
14052;SDS011;7101;51.600;7.310;2024-03-06T02:07:56;28.15;;;14.73;;
14052;SDS011;7101;51.600;7.310;2024-03-06T02:10:24;26.85;;;14.27;;
14052;SDS011;7101;51.600;7.310;2024-03-06T02:12:53;26.75;;;13.98;;
14052;SDS011;7101;51.600;7.310;2024-03-06T02:15:20;25.35;;;13.50;;
14052;SDS011;7101;51.600;7.310;2024-03-06T02:17:48;23.67;;;13.75;;
14052;SDS011;7101;51.600;7.310;2024-03-06T02:20:16;20.92;;;12.75;;
14052;SDS011;7101;51.600;7.310;2024-03-06T02:22:44;22.65;;;12.57;;
14052;SDS011;7101;51.600;7.310;2024-03-06T02:25:10;23.35;;;13.30;;
14052;SDS011;7101;51.600;7.310;2024-03-06T02:27:40;22.65;;;12.55;;
14052;SDS011;7101;51.600;7.310;2024-03-06T02:30:07;25.17;;;13.73;;
14052;SDS011;7101;51.600;7.310;2024-03-06T02:32:34;24.85;;;12.55;;
14052;SDS011;7101;51.600;7.310;2024-03-06T02:35:03;21.85;;;12.85;;
14052;SDS011;7101;51.600;7.310;2024-03-06T02:37:33;21.67;;;11.80;;
14052;SDS011;7101;51.600;7.310;2024-03-06T02:40:01;21.55;;;11.65;;
14052;SDS011;7101;51.600;7.310;2024-03-06T02:42:32;21.35;;;12.23;;
14052;SDS011;7101;51.600;7.310;2024-03-06T02:44:59;20.90;;;12.23;;
14052;SDS011;7101;51.600;7.310;2024-03-06T02:47:25;18.73;;;11.18;;
14052;SDS011;7101;51.600;7.310;2024-03-06T02:49:52;20.00;;;11.98;;
14052;SDS011;7101;51.600;7.310;2024-03-06T02:52:19;21.10;;;11.80;;
14052;SDS011;7101;51.600;7.310;2024-03-06T02:54:46;21.15;;;12.40;;
14052;SDS011;7101;51.600;7.310;2024-03-06T02:57:17;22.33;;;12.32;;
14052;SDS011;7101;51.600;7.310;2024-03-06T02:59:44;21.55;;;11.73;;
14052;SDS011;7101;51.600;7.310;2024-03-06T03:02:11;20.05;;;11.60;;
14052;SDS011;7101;51.600;7.310;2024-03-06T03:04:41;21.60;;;12.35;;
14052;SDS011;7101;51.600;7.310;2024-03-06T03:07:09;20.30;;;11.77;;
14052;SDS011;7101;51.600;7.310;2024-03-06T03:09:36;26.08;;;13.18;;
14052;SDS011;7101;51.600;7.310;2024-03-06T03:12:04;19.42;;;11.95;;
14052;SDS011;7101;51.600;7.310;2024-03-06T03:14:32;22.23;;;12.48;;
14052;SDS011;7101;51.600;7.310;2024-03-06T03:16:59;19.60;;;11.80;;
14052;SDS011;7101;51.600;7.310;2024-03-06T03:19:27;19.88;;;11.55;;
14052;SDS011;7101;51.600;7.310;2024-03-06T03:21:54;22.35;;;12.20;;
14052;SDS011;7101;51.600;7.310;2024-03-06T03:24:21;21.10;;;12.52;;
14052;SDS011;7101;51.600;7.310;2024-03-06T03:26:50;26.38;;;12.15;;
14052;SDS011;7101;51.600;7.310;2024-03-06T03:29:17;23.02;;;13.00;;
14052;SDS011;7101;51.600;7.310;2024-03-06T03:31:47;25.40;;;12.00;;
14052;SDS011;7101;51.600;7.310;2024-03-06T03:34:14;21.67;;;12.05;;
14052;SDS011;7101;51.600;7.310;2024-03-06T03:36:41;22.05;;;11.63;;
14052;SDS011;7101;51.600;7.310;2024-03-06T03:39:07;17.75;;;10.95;;
14052;SDS011;7101;51.600;7.310;2024-03-06T03:41:42;18.92;;;10.88;;
14052;SDS011;7101;51.600;7.310;2024-03-06T03:44:11;20.48;;;11.25;;
14052;SDS011;7101;51.600;7.310;2024-03-06T03:46:38;24.08;;;10.07;;
14052;SDS011;7101;51.600;7.310;2024-03-06T03:49:06;18.75;;;10.85;;
14052;SDS011;7101;51.600;7.310;2024-03-06T03:51:33;19.50;;;10.57;;
14052;SDS011;7101;51.600;7.310;2024-03-06T03:54:00;15.50;;;9.35;;
14052;SDS011;7101;51.600;7.310;2024-03-06T03:56:27;12.68;;;7.22;;
14052;SDS011;7101;51.600;7.310;2024-03-06T03:58:55;9.38;;;6.53;;
14052;SDS011;7101;51.600;7.310;2024-03-06T04:01:22;16.92;;;8.45;;
14052;SDS011;7101;51.600;7.310;2024-03-06T04:03:49;21.05;;;9.05;;
14052;SDS011;7101;51.600;7.310;2024-03-06T04:06:17;11.35;;;7.60;;
14052;SDS011;7101;51.600;7.310;2024-03-06T04:08:44;19.55;;;7.32;;
14052;SDS011;7101;51.600;7.310;2024-03-06T04:11:11;13.88;;;8.70;;
14052;SDS011;7101;51.600;7.310;2024-03-06T04:13:38;10.10;;;7.25;;
14052;SDS011;7101;51.600;7.310;2024-03-06T04:16:05;8.65;;;5.68;;
14052;SDS011;7101;51.600;7.310;2024-03-06T04:18:32;12.63;;;7.32;;
14052;SDS011;7101;51.600;7.310;2024-03-06T04:21:01;14.43;;;8.70;;
14052;SDS011;7101;51.600;7.310;2024-03-06T04:23:31;15.82;;;9.23;;
14052;SDS011;7101;51.600;7.310;2024-03-06T04:25:59;12.95;;;8.20;;
14052;SDS011;7101;51.600;7.310;2024-03-06T04:28:25;14.57;;;8.02;;
14052;SDS011;7101;51.600;7.310;2024-03-06T04:30:52;12.93;;;7.93;;
14052;SDS011;7101;51.600;7.310;2024-03-06T04:33:19;12.85;;;7.88;;
14052;SDS011;7101;51.600;7.310;2024-03-06T04:35:46;14.85;;;8.73;;
14052;SDS011;7101;51.600;7.310;2024-03-06T04:38:13;17.33;;;9.00;;
14052;SDS011;7101;51.600;7.310;2024-03-06T04:40:41;10.32;;;7.70;;
14052;SDS011;7101;51.600;7.310;2024-03-06T04:43:08;14.23;;;8.88;;
14052;SDS011;7101;51.600;7.310;2024-03-06T04:45:34;16.30;;;8.10;;
14052;SDS011;7101;51.600;7.310;2024-03-06T04:48:01;9.48;;;7.03;;
14052;SDS011;7101;51.600;7.310;2024-03-06T04:50:28;10.38;;;7.13;;
14052;SDS011;7101;51.600;7.310;2024-03-06T04:52:55;11.68;;;6.97;;
14052;SDS011;7101;51.600;7.310;2024-03-06T04:55:22;10.95;;;7.28;;
14052;SDS011;7101;51.600;7.310;2024-03-06T04:57:51;11.32;;;7.88;;
14052;SDS011;7101;51.600;7.310;2024-03-06T05:00:19;9.25;;;6.88;;
14052;SDS011;7101;51.600;7.310;2024-03-06T05:02:46;10.05;;;6.97;;
14052;SDS011;7101;51.600;7.310;2024-03-06T05:05:14;8.18;;;6.50;;
14052;SDS011;7101;51.600;7.310;2024-03-06T05:07:41;9.13;;;6.70;;
14052;SDS011;7101;51.600;7.310;2024-03-06T05:10:08;10.73;;;7.53;;
14052;SDS011;7101;51.600;7.310;2024-03-06T05:12:35;10.30;;;7.30;;
14052;SDS011;7101;51.600;7.310;2024-03-06T05:15:04;10.05;;;7.40;;
14052;SDS011;7101;51.600;7.310;2024-03-06T05:17:31;10.65;;;7.68;;
14052;SDS011;7101;51.600;7.310;2024-03-06T05:19:58;11.68;;;6.80;;
14052;SDS011;7101;51.600;7.310;2024-03-06T05:22:25;11.18;;;6.95;;
14052;SDS011;7101;51.600;7.310;2024-03-06T05:24:52;9.77;;;6.38;;
14052;SDS011;7101;51.600;7.310;2024-03-06T05:27:20;9.57;;;6.18;;
14052;SDS011;7101;51.600;7.310;2024-03-06T05:29:47;9.95;;;7.05;;
14052;SDS011;7101;51.600;7.310;2024-03-06T05:32:15;21.50;;;8.35;;
14052;SDS011;7101;51.600;7.310;2024-03-06T05:34:42;13.65;;;7.60;;
14052;SDS011;7101;51.600;7.310;2024-03-06T05:37:09;12.18;;;7.47;;
14052;SDS011;7101;51.600;7.310;2024-03-06T05:39:36;11.40;;;7.28;;
14052;SDS011;7101;51.600;7.310;2024-03-06T05:42:04;12.18;;;7.85;;
14052;SDS011;7101;51.600;7.310;2024-03-06T05:44:31;11.95;;;7.50;;
14052;SDS011;7101;51.600;7.310;2024-03-06T05:46:58;11.55;;;7.13;;
14052;SDS011;7101;51.600;7.310;2024-03-06T05:49:27;11.40;;;7.25;;
14052;SDS011;7101;51.600;7.310;2024-03-06T05:51:55;12.75;;;7.82;;
14052;SDS011;7101;51.600;7.310;2024-03-06T05:54:22;9.27;;;6.47;;
14052;SDS011;7101;51.600;7.310;2024-03-06T05:56:49;10.82;;;6.97;;
14052;SDS011;7101;51.600;7.310;2024-03-06T05:59:18;10.85;;;7.30;;
14052;SDS011;7101;51.600;7.310;2024-03-06T06:01:46;11.07;;;7.05;;
14052;SDS011;7101;51.600;7.310;2024-03-06T06:04:13;10.15;;;6.78;;
14052;SDS011;7101;51.600;7.310;2024-03-06T06:06:41;8.85;;;6.07;;
14052;SDS011;7101;51.600;7.310;2024-03-06T06:09:08;10.30;;;6.13;;
14052;SDS011;7101;51.600;7.310;2024-03-06T06:11:40;8.60;;;5.95;;
14052;SDS011;7101;51.600;7.310;2024-03-06T06:14:08;7.70;;;5.60;;
14052;SDS011;7101;51.600;7.310;2024-03-06T06:16:35;10.00;;;6.70;;
14052;SDS011;7101;51.600;7.310;2024-03-06T06:19:02;8.25;;;5.97;;
14052;SDS011;7101;51.600;7.310;2024-03-06T06:21:30;13.02;;;7.25;;
14052;SDS011;7101;51.600;7.310;2024-03-06T06:23:58;9.50;;;6.30;;
14052;SDS011;7101;51.600;7.310;2024-03-06T06:26:25;10.55;;;7.00;;
14052;SDS011;7101;51.600;7.310;2024-03-06T06:28:52;10.30;;;6.68;;
14052;SDS011;7101;51.600;7.310;2024-03-06T06:31:19;11.43;;;5.90;;
14052;SDS011;7101;51.600;7.310;2024-03-06T06:33:47;12.80;;;6.65;;
14052;SDS011;7101;51.600;7.310;2024-03-06T06:36:13;8.50;;;5.68;;
14052;SDS011;7101;51.600;7.310;2024-03-06T06:38:40;8.60;;;6.15;;
14052;SDS011;7101;51.600;7.310;2024-03-06T06:41:08;9.93;;;6.72;;
14052;SDS011;7101;51.600;7.310;2024-03-06T06:43:35;10.02;;;6.68;;
14052;SDS011;7101;51.600;7.310;2024-03-06T06:46:02;13.07;;;7.65;;
14052;SDS011;7101;51.600;7.310;2024-03-06T06:48:31;11.40;;;7.45;;
14052;SDS011;7101;51.600;7.310;2024-03-06T06:50:58;11.38;;;7.90;;
14052;SDS011;7101;51.600;7.310;2024-03-06T06:53:26;13.45;;;7.43;;
14052;SDS011;7101;51.600;7.310;2024-03-06T06:55:53;12.77;;;7.30;;
14052;SDS011;7101;51.600;7.310;2024-03-06T06:58:21;10.77;;;7.47;;
14052;SDS011;7101;51.600;7.310;2024-03-06T07:00:48;12.38;;;7.60;;
14052;SDS011;7101;51.600;7.310;2024-03-06T07:03:15;10.90;;;6.95;;
14052;SDS011;7101;51.600;7.310;2024-03-06T07:05:42;12.57;;;6.70;;
14052;SDS011;7101;51.600;7.310;2024-03-06T07:08:09;11.00;;;7.70;;
14052;SDS011;7101;51.600;7.310;2024-03-06T07:10:36;13.48;;;8.25;;
14052;SDS011;7101;51.600;7.310;2024-03-06T07:13:04;15.02;;;9.25;;
14052;SDS011;7101;51.600;7.310;2024-03-06T07:15:32;20.20;;;10.95;;
14052;SDS011;7101;51.600;7.310;2024-03-06T07:17:59;17.98;;;10.88;;
14052;SDS011;7101;51.600;7.310;2024-03-06T07:20:26;25.02;;;12.85;;
14052;SDS011;7101;51.600;7.310;2024-03-06T07:22:53;24.08;;;12.32;;
14052;SDS011;7101;51.600;7.310;2024-03-06T07:25:21;23.15;;;13.40;;
14052;SDS011;7101;51.600;7.310;2024-03-06T07:27:48;21.17;;;12.07;;
14052;SDS011;7101;51.600;7.310;2024-03-06T07:30:15;26.20;;;12.40;;
14052;SDS011;7101;51.600;7.310;2024-03-06T07:32:43;26.00;;;12.63;;
14052;SDS011;7101;51.600;7.310;2024-03-06T07:35:10;23.20;;;11.68;;
14052;SDS011;7101;51.600;7.310;2024-03-06T07:37:39;20.13;;;10.90;;
14052;SDS011;7101;51.600;7.310;2024-03-06T07:40:09;18.17;;;12.32;;
14052;SDS011;7101;51.600;7.310;2024-03-06T07:42:36;23.73;;;12.98;;
14052;SDS011;7101;51.600;7.310;2024-03-06T07:45:04;25.40;;;12.25;;
14052;SDS011;7101;51.600;7.310;2024-03-06T07:47:32;24.60;;;11.73;;
14052;SDS011;7101;51.600;7.310;2024-03-06T07:50:00;20.42;;;11.82;;
14052;SDS011;7101;51.600;7.310;2024-03-06T07:52:27;24.00;;;12.45;;
14052;SDS011;7101;51.600;7.310;2024-03-06T07:54:54;23.02;;;11.23;;
14052;SDS011;7101;51.600;7.310;2024-03-06T07:57:22;24.02;;;13.43;;
14052;SDS011;7101;51.600;7.310;2024-03-06T07:59:49;19.52;;;11.02;;
14052;SDS011;7101;51.600;7.310;2024-03-06T08:02:19;20.98;;;11.32;;
14052;SDS011;7101;51.600;7.310;2024-03-06T08:04:46;20.75;;;11.40;;
14052;SDS011;7101;51.600;7.310;2024-03-06T08:07:14;22.10;;;12.00;;
14052;SDS011;7101;51.600;7.310;2024-03-06T08:09:42;26.65;;;11.93;;
14052;SDS011;7101;51.600;7.310;2024-03-06T08:12:09;19.25;;;11.05;;
14052;SDS011;7101;51.600;7.310;2024-03-06T08:14:36;22.85;;;12.10;;
14052;SDS011;7101;51.600;7.310;2024-03-06T08:17:03;19.73;;;10.90;;
14052;SDS011;7101;51.600;7.310;2024-03-06T08:19:30;20.30;;;11.43;;
14052;SDS011;7101;51.600;7.310;2024-03-06T08:21:57;20.00;;;11.35;;
14052;SDS011;7101;51.600;7.310;2024-03-06T08:24:25;23.30;;;12.02;;
14052;SDS011;7101;51.600;7.310;2024-03-06T08:26:52;19.38;;;12.10;;
14052;SDS011;7101;51.600;7.310;2024-03-06T08:29:19;19.42;;;11.93;;
14052;SDS011;7101;51.600;7.310;2024-03-06T08:31:46;19.55;;;11.13;;
14052;SDS011;7101;51.600;7.310;2024-03-06T08:34:13;20.90;;;11.82;;
14052;SDS011;7101;51.600;7.310;2024-03-06T08:36:41;21.70;;;11.95;;
14052;SDS011;7101;51.600;7.310;2024-03-06T08:39:08;18.23;;;12.10;;
14052;SDS011;7101;51.600;7.310;2024-03-06T08:41:42;22.92;;;12.48;;
14052;SDS011;7101;51.600;7.310;2024-03-06T08:44:09;23.85;;;13.15;;
14052;SDS011;7101;51.600;7.310;2024-03-06T08:46:36;25.73;;;13.88;;
14052;SDS011;7101;51.600;7.310;2024-03-06T08:49:02;26.38;;;14.02;;
14052;SDS011;7101;51.600;7.310;2024-03-06T08:51:29;23.58;;;13.85;;
14052;SDS011;7101;51.600;7.310;2024-03-06T08:53:56;27.05;;;14.60;;
14052;SDS011;7101;51.600;7.310;2024-03-06T08:56:23;26.60;;;14.43;;
14052;SDS011;7101;51.600;7.310;2024-03-06T08:58:51;26.63;;;14.68;;
14052;SDS011;7101;51.600;7.310;2024-03-06T09:01:18;28.73;;;15.23;;
14052;SDS011;7101;51.600;7.310;2024-03-06T09:03:45;30.50;;;15.18;;
14052;SDS011;7101;51.600;7.310;2024-03-06T09:06:12;28.45;;;13.30;;
14052;SDS011;7101;51.600;7.310;2024-03-06T09:08:39;27.42;;;13.57;;
14052;SDS011;7101;51.600;7.310;2024-03-06T09:11:05;22.73;;;13.55;;
14052;SDS011;7101;51.600;7.310;2024-03-06T09:13:32;28.70;;;15.82;;
14052;SDS011;7101;51.600;7.310;2024-03-06T09:16:00;30.90;;;15.02;;
14052;SDS011;7101;51.600;7.310;2024-03-06T09:18:27;32.45;;;16.42;;
14052;SDS011;7101;51.600;7.310;2024-03-06T09:20:54;29.65;;;15.48;;
14052;SDS011;7101;51.600;7.310;2024-03-06T09:23:21;33.55;;;15.80;;
14052;SDS011;7101;51.600;7.310;2024-03-06T09:25:48;30.35;;;16.20;;
14052;SDS011;7101;51.600;7.310;2024-03-06T09:28:15;28.38;;;15.95;;
14052;SDS011;7101;51.600;7.310;2024-03-06T09:30:42;27.58;;;16.13;;
14052;SDS011;7101;51.600;7.310;2024-03-06T09:33:12;30.25;;;15.85;;
14052;SDS011;7101;51.600;7.310;2024-03-06T09:35:38;32.53;;;16.27;;
14052;SDS011;7101;51.600;7.310;2024-03-06T09:38:10;32.25;;;15.63;;
14052;SDS011;7101;51.600;7.310;2024-03-06T09:40:38;37.92;;;16.75;;
14052;SDS011;7101;51.600;7.310;2024-03-06T09:43:06;30.35;;;15.93;;
14052;SDS011;7101;51.600;7.310;2024-03-06T09:45:34;28.77;;;15.45;;
14052;SDS011;7101;51.600;7.310;2024-03-06T09:48:01;26.65;;;15.25;;
14052;SDS011;7101;51.600;7.310;2024-03-06T09:50:30;30.85;;;16.45;;
14052;SDS011;7101;51.600;7.310;2024-03-06T09:53:03;31.67;;;15.60;;
14052;SDS011;7101;51.600;7.310;2024-03-06T09:55:32;28.08;;;15.15;;
14052;SDS011;7101;51.600;7.310;2024-03-06T09:58:02;28.92;;;14.05;;
14052;SDS011;7101;51.600;7.310;2024-03-06T10:00:30;30.27;;;15.05;;
14052;SDS011;7101;51.600;7.310;2024-03-06T10:02:58;28.23;;;15.02;;
14052;SDS011;7101;51.600;7.310;2024-03-06T10:05:26;26.13;;;13.15;;
14052;SDS011;7101;51.600;7.310;2024-03-06T10:07:54;28.05;;;13.80;;
14052;SDS011;7101;51.600;7.310;2024-03-06T10:10:21;24.83;;;12.65;;
14052;SDS011;7101;51.600;7.310;2024-03-06T10:12:48;24.55;;;12.82;;
14052;SDS011;7101;51.600;7.310;2024-03-06T10:15:15;21.10;;;12.55;;
14052;SDS011;7101;51.600;7.310;2024-03-06T10:17:43;25.40;;;13.50;;
14052;SDS011;7101;51.600;7.310;2024-03-06T10:20:18;21.00;;;11.95;;
14052;SDS011;7101;51.600;7.310;2024-03-06T10:22:51;33.83;;;16.95;;
14052;SDS011;7101;51.600;7.310;2024-03-06T10:25:20;30.00;;;16.58;;
14052;SDS011;7101;51.600;7.310;2024-03-06T10:28:02;30.95;;;16.48;;
14052;SDS011;7101;51.600;7.310;2024-03-06T10:30:30;35.00;;;18.30;;
14052;SDS011;7101;51.600;7.310;2024-03-06T10:32:58;30.98;;;17.42;;
14052;SDS011;7101;51.600;7.310;2024-03-06T10:35:25;33.20;;;18.98;;
14052;SDS011;7101;51.600;7.310;2024-03-06T10:37:52;33.13;;;19.38;;
14052;SDS011;7101;51.600;7.310;2024-03-06T10:40:22;33.72;;;19.88;;
14052;SDS011;7101;51.600;7.310;2024-03-06T10:42:49;34.70;;;19.80;;
14052;SDS011;7101;51.600;7.310;2024-03-06T10:45:17;37.53;;;20.38;;
14052;SDS011;7101;51.600;7.310;2024-03-06T10:47:47;36.42;;;21.75;;
14052;SDS011;7101;51.600;7.310;2024-03-06T10:50:14;35.72;;;21.90;;
14052;SDS011;7101;51.600;7.310;2024-03-06T10:52:41;38.50;;;21.10;;
14052;SDS011;7101;51.600;7.310;2024-03-06T10:55:11;31.83;;;19.20;;
14052;SDS011;7101;51.600;7.310;2024-03-06T10:57:41;34.83;;;19.88;;
14052;SDS011;7101;51.600;7.310;2024-03-06T11:00:09;32.15;;;18.27;;
14052;SDS011;7101;51.600;7.310;2024-03-06T11:02:41;34.00;;;18.33;;
14052;SDS011;7101;51.600;7.310;2024-03-06T11:05:08;42.80;;;20.77;;
14052;SDS011;7101;51.600;7.310;2024-03-06T11:07:36;39.28;;;19.23;;
14052;SDS011;7101;51.600;7.310;2024-03-06T11:10:03;35.72;;;18.85;;
14052;SDS011;7101;51.600;7.310;2024-03-06T11:12:37;34.20;;;18.83;;
14052;SDS011;7101;51.600;7.310;2024-03-06T11:15:10;31.98;;;17.63;;
14052;SDS011;7101;51.600;7.310;2024-03-06T11:17:39;32.70;;;18.00;;
14052;SDS011;7101;51.600;7.310;2024-03-06T11:20:13;35.95;;;16.92;;
14052;SDS011;7101;51.600;7.310;2024-03-06T11:28:29;28.98;;;16.15;;
14052;SDS011;7101;51.600;7.310;2024-03-06T11:30:58;34.20;;;18.45;;
14052;SDS011;7101;51.600;7.310;2024-03-06T11:33:35;31.55;;;15.95;;
14052;SDS011;7101;51.600;7.310;2024-03-06T11:36:15;31.33;;;17.08;;
14052;SDS011;7101;51.600;7.310;2024-03-06T11:38:48;34.40;;;20.02;;
14052;SDS011;7101;51.600;7.310;2024-03-06T11:41:19;33.17;;;18.20;;
14052;SDS011;7101;51.600;7.310;2024-03-06T11:43:47;38.15;;;19.38;;
14052;SDS011;7101;51.600;7.310;2024-03-06T11:46:17;34.92;;;19.45;;
14052;SDS011;7101;51.600;7.310;2024-03-06T11:48:50;34.45;;;19.45;;
14052;SDS011;7101;51.600;7.310;2024-03-06T11:51:18;39.03;;;20.48;;
14052;SDS011;7101;51.600;7.310;2024-03-06T11:53:45;37.53;;;19.98;;
14052;SDS011;7101;51.600;7.310;2024-03-06T11:56:15;38.90;;;19.65;;
14052;SDS011;7101;51.600;7.310;2024-03-06T11:58:42;35.40;;;19.58;;
14052;SDS011;7101;51.600;7.310;2024-03-06T12:01:09;40.40;;;20.63;;
14052;SDS011;7101;51.600;7.310;2024-03-06T12:03:37;39.53;;;21.25;;
14052;SDS011;7101;51.600;7.310;2024-03-06T12:06:04;40.40;;;20.92;;
14052;SDS011;7101;51.600;7.310;2024-03-06T12:08:33;42.90;;;22.83;;
14052;SDS011;7101;51.600;7.310;2024-03-06T12:11:03;41.63;;;21.40;;
14052;SDS011;7101;51.600;7.310;2024-03-06T12:13:30;38.83;;;19.48;;
14052;SDS011;7101;51.600;7.310;2024-03-06T12:15:58;33.60;;;17.17;;
14052;SDS011;7101;51.600;7.310;2024-03-06T12:18:26;28.58;;;15.57;;
14052;SDS011;7101;51.600;7.310;2024-03-06T12:20:54;29.20;;;15.63;;
14052;SDS011;7101;51.600;7.310;2024-03-06T12:23:21;27.83;;;14.88;;
14052;SDS011;7101;51.600;7.310;2024-03-06T12:25:50;25.90;;;14.43;;
14052;SDS011;7101;51.600;7.310;2024-03-06T12:28:28;24.63;;;13.38;;
14052;SDS011;7101;51.600;7.310;2024-03-06T12:30:55;25.83;;;12.77;;
14052;SDS011;7101;51.600;7.310;2024-03-06T12:33:26;21.35;;;12.80;;
14052;SDS011;7101;51.600;7.310;2024-03-06T12:36:00;27.42;;;14.18;;
14052;SDS011;7101;51.600;7.310;2024-03-06T12:38:31;25.15;;;12.68;;
14052;SDS011;7101;51.600;7.310;2024-03-06T12:40:59;24.13;;;12.25;;
14052;SDS011;7101;51.600;7.310;2024-03-06T12:43:26;19.38;;;11.43;;
14052;SDS011;7101;51.600;7.310;2024-03-06T12:45:54;24.45;;;12.40;;
14052;SDS011;7101;51.600;7.310;2024-03-06T12:48:22;21.75;;;10.77;;
14052;SDS011;7101;51.600;7.310;2024-03-06T12:50:49;18.73;;;10.68;;
14052;SDS011;7101;51.600;7.310;2024-03-06T12:53:20;19.67;;;10.40;;
14052;SDS011;7101;51.600;7.310;2024-03-06T12:55:47;19.85;;;9.95;;
14052;SDS011;7101;51.600;7.310;2024-03-06T12:58:15;15.88;;;8.60;;
14052;SDS011;7101;51.600;7.310;2024-03-06T13:00:42;13.63;;;8.52;;
14052;SDS011;7101;51.600;7.310;2024-03-06T13:03:08;20.38;;;10.68;;
14052;SDS011;7101;51.600;7.310;2024-03-06T13:05:35;16.30;;;9.70;;
14052;SDS011;7101;51.600;7.310;2024-03-06T13:08:03;19.15;;;10.25;;
14052;SDS011;7101;51.600;7.310;2024-03-06T13:10:32;21.75;;;10.15;;
14052;SDS011;7101;51.600;7.310;2024-03-06T13:13:00;18.63;;;10.80;;
14052;SDS011;7101;51.600;7.310;2024-03-06T13:15:27;19.63;;;10.35;;
14052;SDS011;7101;51.600;7.310;2024-03-06T13:17:54;20.95;;;10.68;;
14052;SDS011;7101;51.600;7.310;2024-03-06T13:20:21;21.67;;;12.27;;
14052;SDS011;7101;51.600;7.310;2024-03-06T13:22:48;21.00;;;11.68;;
14052;SDS011;7101;51.600;7.310;2024-03-06T13:25:15;23.20;;;11.60;;
14052;SDS011;7101;51.600;7.310;2024-03-06T13:27:43;18.05;;;9.80;;
14052;SDS011;7101;51.600;7.310;2024-03-06T13:30:10;23.85;;;11.02;;
14052;SDS011;7101;51.600;7.310;2024-03-06T13:32:38;20.33;;;11.40;;
14052;SDS011;7101;51.600;7.310;2024-03-06T13:35:05;21.52;;;11.63;;
14052;SDS011;7101;51.600;7.310;2024-03-06T13:37:34;18.92;;;9.82;;
14052;SDS011;7101;51.600;7.310;2024-03-06T13:40:01;19.77;;;10.45;;
14052;SDS011;7101;51.600;7.310;2024-03-06T13:42:28;23.42;;;10.90;;
14052;SDS011;7101;51.600;7.310;2024-03-06T13:44:56;19.10;;;10.63;;
14052;SDS011;7101;51.600;7.310;2024-03-06T13:47:23;16.85;;;10.18;;
14052;SDS011;7101;51.600;7.310;2024-03-06T13:49:51;18.83;;;10.73;;
14052;SDS011;7101;51.600;7.310;2024-03-06T13:52:17;22.13;;;10.40;;
14052;SDS011;7101;51.600;7.310;2024-03-06T13:54:45;17.08;;;9.32;;
14052;SDS011;7101;51.600;7.310;2024-03-06T13:57:12;14.95;;;9.40;;
14052;SDS011;7101;51.600;7.310;2024-03-06T13:59:39;15.65;;;9.05;;
14052;SDS011;7101;51.600;7.310;2024-03-06T14:02:08;19.02;;;9.38;;
14052;SDS011;7101;51.600;7.310;2024-03-06T14:04:35;16.30;;;8.95;;
14052;SDS011;7101;51.600;7.310;2024-03-06T14:07:01;14.13;;;8.50;;
14052;SDS011;7101;51.600;7.310;2024-03-06T14:09:29;12.18;;;7.20;;
14052;SDS011;7101;51.600;7.310;2024-03-06T14:11:55;13.85;;;8.02;;
14052;SDS011;7101;51.600;7.310;2024-03-06T14:14:22;12.77;;;7.72;;
14052;SDS011;7101;51.600;7.310;2024-03-06T14:16:49;13.02;;;6.43;;
14052;SDS011;7101;51.600;7.310;2024-03-06T14:19:17;13.95;;;7.55;;
14052;SDS011;7101;51.600;7.310;2024-03-06T14:21:44;14.75;;;6.10;;
14052;SDS011;7101;51.600;7.310;2024-03-06T14:24:12;10.27;;;5.80;;
14052;SDS011;7101;51.600;7.310;2024-03-06T14:26:39;9.77;;;5.75;;
14052;SDS011;7101;51.600;7.310;2024-03-06T14:29:06;12.13;;;6.38;;
14052;SDS011;7101;51.600;7.310;2024-03-06T14:31:34;11.25;;;6.57;;
14052;SDS011;7101;51.600;7.310;2024-03-06T14:34:01;13.57;;;5.88;;
14052;SDS011;7101;51.600;7.310;2024-03-06T14:36:29;11.18;;;6.15;;
14052;SDS011;7101;51.600;7.310;2024-03-06T14:39:00;12.90;;;6.63;;
14052;SDS011;7101;51.600;7.310;2024-03-06T14:41:27;13.05;;;7.28;;
14052;SDS011;7101;51.600;7.310;2024-03-06T14:43:53;12.93;;;7.50;;
14052;SDS011;7101;51.600;7.310;2024-03-06T14:46:20;16.48;;;9.68;;